Chugiak, AK

11:34 PM AKDT on September 21, 2014 (GMT -0800)
Palmer Municipal | Change Station
CLOSE
Current Station
Airport
Location: Palmer,
Elevation: 240 ft
Nearby Weather Stations

Elev 240 ft 61.59 °N, 149.09 °W | Updated 41 minutes ago

Clear
Clear
46 °F
Feels Like 46 °F
N
0
Wind Variable Wind from North

Today
High -- | Low -- °F
--% Chance of Precip.
Yesterday
High -- | Low -- °F
Precip. -- in
7:39 AM 8:00 PM
Waning Crescent, 4% visible
Pressure 29.33 in
Visibility 10.0 miles
Clouds Clear
Dew Point 38 °F
Humidity 73%
Rainfall 0.05 in
Snow Depth 0 in , 0 in , 1 in
UV 0 out of 12
Pollen Not available.
Air Quality Not available.
Flu Activity Not available.
METAR PAAQ 220653Z AUTO 00000KT 10SM CLR 08/03 A2932 RMK AO2 SLP931 T00780033 TSNO

More Conditions Fewer Conditions

Pressure 29.33 in
Visibility 10.0 miles
Clouds Clear
Dew Point 38 °F
Humidity 73%
Rainfall 0.05 in
Snow Depth 0 in , 0 in , 1 in
UV 0 out of 12
Pollen Not available.
Air Quality Not available.
Flu Activity Not available.
METAR PAAQ 220653Z AUTO 00000KT 10SM CLR 08/03 A2932 RMK AO2 SLP931 T00780033 TSNO

More Conditions Fewer Conditions

10-Day Weather Forecast

Almanac

Astronomy

Sep. 21, 2014 Rise Set
Actual Time 7:39 AM AKDT 8:00 PM AKDT
Civil Twilight 6:56 AM AKDT 8:43 PM AKDT
Nautical Twilight 6:03 AM AKDT 9:36 PM AKDT
Astronomical Twilight 5:04 AM AKDT 10:34 PM AKDT
Moon 4:53 AM AKDT (9/21) 7:02 PM AKDT (9/21)
Length of Visible Light 13h 47m
Length of Day
12h 20m
Tomorrow will be 5m 43s shorter.
Waning Crescent, 4% of the Moon is Illuminated
Sep 22
Waning Crescent
Sep 24
New
Oct 1
First Quarter
Oct 8
Full
Oct 15
Last Quarter

Community

WunderPhotos

Upload Photos

1,755,392 photos uploaded!

Nearby

Snow Depth

Station Depth Elevation
Gobblers Knob 0 in 2030 ft
Port Graham 0 in 300 ft
Mcneil Canyon 1 in 1320 ft
Fort Yukon 0 in 430 ft
Eagle Summit 0 in 3650 ft

Earthquake Activity

City Distance Mag. Time & Date
No recent earthquake activity has been reported nearby.
Minimum magnitude displayed is 2.5.

Coastal Water Temperatures

Place Temperature
No Stations Reporting

Nearby Weather Stations